KCBK/CBK METAR and TAF weather

Enter ICAO airport designator
Station Type Date Time Source
KCBK METAR 2021/09/16 20:55 UTC NOAA

KCBK 162055Z AUTO 18020KT 10SM CLR 34/12 A2980 RMK AO2 T03410125


Station Type Date Time Source
KCBK Decoded METAR 2021/09/16 20:55 UTC NOAA

Station name not available
Sep 16, 2021 - 04:55 PM EDT / 2021.09.16 2055 UTC
Wind: from the S (180 degrees) at 23 MPH (20 KT):0
Visibility: 10 mile(s):0
Sky conditions: clear
Temperature: 93.4 F (34.1 C)
Dew Point: 54.5 F (12.5 C)
Relative Humidity: 27%
Pressure (altimeter): 29.8 in. Hg (1009 hPa)
ob: KCBK 162055Z AUTO 18020KT 10SM CLR 34/12 A2980 RMK AO2 T03410125
cycle: 21

Station Type Date Time Source
KCBK TAF UTC NOAA

Error!

Example: see airport list